Terminal Aerodrome Forecast
Issued by NWS

Home | Current Version | Previous Version | Text Only | Print | Product List | Glossary On
Versions: 1 2 3 4 5 6 7 8 9 10 11 12 13 14 15 16 17 18 19 20 21 22 23 24 25 26 27 28 29 30 31 32
000
FTUS43 KGRR 270200 AAA
TAFMKG
TAF AMD
KMKG 270218Z 2702/2724 15003KT P6SM SCT140
     FM270600 14006KT P6SM OVC015
     FM270900 14008KT P6SM VCSH OVC015
     FM271100 16009KT 4SM -RA BR OVC007
     FM271500 19014G28KT 2SM -DZ BR OVC007=

USA.gov is the U.S. government's official web portal to all federal, state and local government web resources and services.